createdAt,value
2022-12-13T00:05:45.453Z,99827.88
2022-12-13T00:15:59.423Z,99845.19
2022-12-13T00:26:12.052Z,99830.00
2022-12-13T00:36:15.211Z,99833.09
2022-12-13T00:46:21.376Z,99860.09
2022-12-13T00:56:27.496Z,99865.13
2022-12-13T01:06:39.461Z,99863.28
2022-12-13T01:16:41.319Z,99865.44
2022-12-13T01:27:01.429Z,99853.19
2022-12-13T01:37:13.096Z,99869.00
2022-12-13T01:47:19.643Z,99887.91
2022-12-13T01:57:23.281Z,99875.28
2022-12-13T02:07:29.588Z,99904.66
2022-12-13T02:17:53.164Z,99907.19
2022-12-13T02:28:31.011Z,99897.88
2022-12-13T02:38:41.978Z,99900.78
2022-12-13T02:48:45.971Z,99898.66
2022-12-13T02:58:52.722Z,99899.31
2022-12-13T03:09:33.252Z,99903.44
2022-12-13T03:19:35.499Z,99891.66
2022-12-13T03:29:38.205Z,99909.13
2022-12-13T03:39:43.914Z,99911.53
2022-12-13T03:49:47.588Z,99912.97
2022-12-13T03:59:56.241Z,99915.06
2022-12-13T04:09:57.975Z,99924.25
2022-12-13T04:20:01.972Z,99935.06
2022-12-13T04:30:05.029Z,99928.13
2022-12-13T04:40:10.415Z,99930.31
2022-12-13T04:50:13.328Z,99924.03
2022-12-13T05:00:17.511Z,99933.69
2022-12-13T05:10:34.307Z,99933.03
2022-12-13T05:20:41.012Z,99920.50
2022-12-13T05:30:44.943Z,99932.22
2022-12-13T05:40:47.556Z,99934.06
2022-12-13T05:50:49.378Z,99942.63
2022-12-13T06:00:53.180Z,99933.50
2022-12-13T06:11:10.760Z,99947.16
2022-12-13T06:21:13.794Z,99968.63
2022-12-13T06:31:15.769Z,99959.16
2022-12-13T06:41:18.356Z,99966.47
2022-12-13T06:51:22.819Z,99979.00
2022-12-13T07:01:28.265Z,99987.47
2022-12-13T07:11:39.645Z,100008.34
2022-12-13T07:21:41.337Z,100009.22
2022-12-13T07:31:48.022Z,100024.88
2022-12-13T07:41:50.881Z,100016.66
2022-12-13T07:51:55.842Z,100019.91
2022-12-13T08:01:57.707Z,100034.78
2022-12-13T08:12:04.284Z,100044.44
2022-12-13T08:22:07.160Z,100041.69
2022-12-13T08:32:15.976Z,100038.44
2022-12-13T08:42:20.346Z,100033.16
2022-12-13T08:52:31.755Z,100031.22
2022-12-13T09:02:38.457Z,100041.09
2022-12-13T09:12:46.231Z,100041.53
2022-12-13T09:22:48.044Z,100027.94
2022-12-13T09:32:50.650Z,100025.41
2022-12-13T09:43:20.429Z,100007.78
2022-12-13T09:53:22.753Z,100009.47
2022-12-13T10:03:27.236Z,100001.78
2022-12-13T10:14:06.845Z,99995.41
2022-12-13T10:24:31.394Z,99985.16
2022-12-13T10:34:37.625Z,99976.06
2022-12-13T10:44:42.657Z,99959.22
2022-12-13T10:54:48.307Z,99962.47
2022-12-13T11:05:23.362Z,99953.03
2022-12-13T11:15:37.137Z,99942.19
2022-12-13T11:25:43.882Z,99941.66
2022-12-13T11:36:07.771Z,99925.75
2022-12-13T11:46:20.222Z,99918.91
2022-12-13T11:56:23.870Z,99929.19
2022-12-13T12:06:44.473Z,99919.53
2022-12-13T12:16:59.494Z,99921.28
2022-12-13T12:27:25.342Z,99938.31
2022-12-13T12:37:42.899Z,99938.00
2022-12-13T12:59:10.662Z,99934.69
2022-12-13T13:09:17.095Z,99922.59
2022-12-13T13:19:35.537Z,99948.31
2022-12-13T13:29:43.026Z,99951.03
2022-12-13T13:39:59.133Z,99965.56
2022-12-13T13:50:12.977Z,99973.44
2022-12-13T14:00:44.387Z,99968.03
2022-12-13T14:11:22.272Z,99984.53
2022-12-13T14:22:00.135Z,99981.66
2022-12-13T14:32:02.966Z,99976.44
2022-12-13T14:42:30.445Z,99991.25
2022-12-13T14:52:42.609Z,99979.38
2022-12-13T15:02:51.941Z,99982.81
2022-12-13T15:12:55.052Z,99999.44
2022-12-13T15:23:01.148Z,100015.81
2022-12-13T15:33:22.443Z,100024.81
2022-12-13T15:43:46.136Z,100040.34
2022-12-13T15:54:11.518Z,100046.06
2022-12-13T16:04:29.523Z,100048.34
2022-12-13T16:14:49.588Z,100042.22
2022-12-13T16:25:01.238Z,100052.28
2022-12-13T16:35:03.427Z,100037.81
2022-12-13T16:45:39.986Z,100038.19
2022-12-13T16:55:29.413Z,100041.75
2022-12-13T17:05:33.839Z,100028.78
2022-12-13T17:15:40.978Z,100033.63
2022-12-13T17:25:44.469Z,100037.22
2022-12-13T17:35:47.444Z,100020.97
2022-12-13T17:46:02.868Z,100034.28
2022-12-13T17:56:08.784Z,100039.06
2022-12-13T18:06:15.063Z,100040.25
2022-12-13T18:16:19.238Z,100043.38
2022-12-13T18:26:23.478Z,100046.72
2022-12-13T18:36:27.834Z,100052.59
2022-12-13T18:46:35.518Z,100058.84
2022-12-13T18:56:38.237Z,100027.97
2022-12-13T19:06:51.309Z,100040.66
2022-12-13T19:16:56.584Z,100038.78
2022-12-13T19:27:02.604Z,100054.06
2022-12-13T19:37:06.767Z,100048.03
2022-12-13T19:47:12.720Z,100033.53
2022-12-13T19:57:16.546Z,100046.47
2022-12-13T20:07:19.459Z,100037.91
2022-12-13T20:17:23.354Z,100053.91
2022-12-13T20:27:28.110Z,100079.19
2022-12-13T20:37:34.911Z,100069.03
2022-12-13T20:47:39.043Z,100071.78
2022-12-13T20:57:41.786Z,100091.16
2022-12-13T21:08:04.607Z,100066.25
2022-12-13T21:18:09.109Z,100064.78
2022-12-13T21:28:11.460Z,100047.19
2022-12-13T21:38:13.300Z,100045.06
2022-12-13T21:48:15.550Z,100032.84
2022-12-13T21:58:36.002Z,100040.75
2022-12-13T22:08:43.937Z,100043.50
2022-12-13T22:18:48.294Z,100013.00
2022-12-13T22:28:51.111Z,100023.19
2022-12-13T22:38:54.934Z,100015.38
2022-12-13T22:48:56.901Z,99997.41
2022-12-13T22:59:02.238Z,99997.94
2022-12-13T23:09:10.395Z,100001.50
2022-12-13T23:29:40.634Z,99982.41
2022-12-13T23:39:48.376Z,99989.00
2022-12-13T23:49:53.429Z,99989.69
2022-12-13T23:59:56.120Z,99988.22
